Time;durP1;ratioP1;P1;durP2;ratioP2;P2;SDS_P1;SDS_P2;PMS_P1;PMS_P2;Temp;Humidity;BMP_temperature;BMP_pressure;BME280_temperature;BME280_humidity;BME280_pressure;Samples;Min_cycle;Max_cycle;Signal;HPM_P1;HPM_P2
2021/10/02 00:33:45;;;;;;;5.50;3.15;;;;;;;;;;4869517;28;20033;-59
2021/10/02 00:47:04;;;;;;;5.65;3.30;;;;;;;;;;4887620;28;20073;-56
2021/10/02 00:49:29;;;;;;;5.90;3.10;;;;;;;;;;4883696;28;20308;-58
2021/10/02 00:51:55;;;;;;;5.85;3.55;;;;;;;;;;4869170;28;20061;-57
2021/10/02 00:54:20;;;;;;;6.68;3.40;;;;;;;;;;4869919;28;20833;-58
2021/10/02 00:56:45;;;;;;;5.95;3.50;;;;;;;;;;4868265;28;21125;-57
2021/10/02 00:59:11;;;;;;;6.67;3.43;;;;;;;;;;4867610;28;20534;-57
2021/10/02 01:01:57;;;;;;;8.07;3.70;;;;;;;;;;4887982;28;20306;-58
2021/10/02 01:04:29;;;;;;;5.50;3.33;;;;;;;;;;4886057;28;20139;-57
2021/10/02 01:07:07;;;;;;;6.53;3.22;;;;;;;;;;4889558;28;20087;-57
2021/10/02 01:09:44;;;;;;;6.55;3.00;;;;;;;;;;4885610;28;20034;-57
2021/10/02 01:12:12;;;;;;;6.55;3.53;;;;;;;;;;4866351;28;20343;-57
2021/10/02 01:14:43;;;;;;;6.82;3.30;;;;;;;;;;4869569;28;20708;-57
2021/10/02 01:17:14;;;;;;;6.40;3.20;;;;;;;;;;4868223;28;20054;-57
2021/10/02 01:19:49;;;;;;;7.90;3.38;;;;;;;;;;4871690;28;20337;-57
2021/10/02 01:22:33;;;;;;;6.82;3.60;;;;;;;;;;4886185;28;20033;-57
2021/10/02 01:25:07;;;;;;;7.57;3.10;;;;;;;;;;4889171;28;20510;-56
2021/10/02 01:27:35;;;;;;;6.63;3.03;;;;;;;;;;4886500;28;20034;-57
2021/10/02 01:30:06;;;;;;;8.52;3.30;;;;;;;;;;4880611;28;20619;-57
2021/10/02 01:32:41;;;;;;;6.15;3.40;;;;;;;;;;4868922;28;20031;-55
2021/10/02 01:35:28;;;;;;;6.00;3.47;;;;;;;;;;4868712;28;20034;-58
2021/10/02 01:48:51;;;;;;;6.32;3.40;;;;;;;;;;4887192;28;21505;-57
2021/10/02 01:51:17;;;;;;;6.35;3.17;;;;;;;;;;4869612;28;20037;-57
2021/10/02 01:53:43;;;;;;;5.47;3.47;;;;;;;;;;4868918;28;20558;-58
2021/10/02 01:56:11;;;;;;;7.07;3.28;;;;;;;;;;4869891;28;20093;-58
2021/10/02 01:58:36;;;;;;;6.82;3.50;;;;;;;;;;4867076;28;20025;-57
2021/10/02 02:01:03;;;;;;;6.20;3.53;;;;;;;;;;4880742;28;20034;-58
2021/10/02 02:03:30;;;;;;;7.20;3.47;;;;;;;;;;4884360;28;20504;-57
2021/10/02 02:05:55;;;;;;;6.38;3.20;;;;;;;;;;4886265;28;20030;-57
2021/10/02 02:08:24;;;;;;;7.32;3.17;;;;;;;;;;4886225;28;21190;-59
2021/10/02 02:10:50;;;;;;;7.80;3.10;;;;;;;;;;4871194;28;20739;-57
2021/10/02 02:13:16;;;;;;;6.93;3.42;;;;;;;;;;4865164;28;20287;-58
2021/10/02 02:15:42;;;;;;;7.38;3.20;;;;;;;;;;4883741;28;20029;-56
2021/10/02 02:18:12;;;;;;;6.47;3.67;;;;;;;;;;4868331;28;20041;-57
2021/10/02 02:20:42;;;;;;;6.65;3.35;;;;;;;;;;4884548;28;20630;-60
2021/10/02 02:23:11;;;;;;;6.38;3.15;;;;;;;;;;4889768;28;20037;-58
2021/10/02 02:25:37;;;;;;;6.90;3.10;;;;;;;;;;4905246;28;20149;-57
2021/10/02 02:28:04;;;;;;;6.05;3.38;;;;;;;;;;4892297;28;20033;-55
2021/10/02 02:30:29;;;;;;;6.90;3.53;;;;;;;;;;4880284;28;22498;-57
2021/10/02 02:32:56;;;;;;;5.93;3.25;;;;;;;;;;4871731;28;20034;-57
2021/10/02 02:35:22;;;;;;;7.03;3.20;;;;;;;;;;4873929;28;20856;-60
2021/10/02 02:37:47;;;;;;;5.68;3.47;;;;;;;;;;4872014;28;20030;-56
2021/10/02 02:40:13;;;;;;;7.22;3.47;;;;;;;;;;4877721;28;20781;-57
2021/10/02 02:42:38;;;;;;;4.90;3.20;;;;;;;;;;4892555;28;20368;-60
2021/10/02 02:45:05;;;;;;;6.03;3.17;;;;;;;;;;4890869;28;20558;-60
2021/10/02 02:47:32;;;;;;;7.90;3.55;;;;;;;;;;4890259;28;20874;-61
2021/10/02 02:50:04;;;;;;;7.20;3.10;;;;;;;;;;4885516;28;20813;-59
2021/10/02 02:52:35;;;;;;;6.18;3.40;;;;;;;;;;4868455;28;21650;-59
2021/10/02 02:55:03;;;;;;;7.70;3.45;;;;;;;;;;4871297;28;20044;-60
2021/10/02 02:57:32;;;;;;;6.40;3.35;;;;;;;;;;4867871;28;20040;-58
2021/10/02 03:00:06;;;;;;;6.20;3.10;;;;;;;;;;4876950;28;20581;-58
2021/10/02 03:02:36;;;;;;;6.95;3.33;;;;;;;;;;4889702;28;20415;-59
2021/10/02 03:05:02;;;;;;;6.30;3.58;;;;;;;;;;4889915;28;20041;-61
2021/10/02 03:07:29;;;;;;;7.15;3.20;;;;;;;;;;4892011;28;21337;-59
2021/10/02 03:09:55;;;;;;;6.28;3.28;;;;;;;;;;4884555;28;21184;-60
2021/10/02 03:12:27;;;;;;;5.72;2.95;;;;;;;;;;4870901;28;20579;-60
2021/10/02 03:14:53;;;;;;;7.18;3.20;;;;;;;;;;4873204;28;20029;-60
2021/10/02 03:17:19;;;;;;;8.20;3.10;;;;;;;;;;4868987;28;20941;-59
2021/10/02 03:19:45;;;;;;;5.82;3.05;;;;;;;;;;4874315;28;20040;-59
2021/10/02 03:22:10;;;;;;;5.70;3.25;;;;;;;;;;4888618;28;20030;-59
2021/10/02 03:24:37;;;;;;;6.82;3.35;;;;;;;;;;4890629;28;20029;-57
2021/10/02 03:27:03;;;;;;;7.28;3.10;;;;;;;;;;4889694;28;20025;-59
2021/10/02 03:29:29;;;;;;;6.03;2.90;;;;;;;;;;4887677;28;20032;-59
2021/10/02 03:31:54;;;;;;;6.00;3.13;;;;;;;;;;4871957;28;20041;-56
2021/10/02 03:34:20;;;;;;;6.55;3.17;;;;;;;;;;4872354;28;20021;-58
2021/10/02 03:36:45;;;;;;;7.25;3.53;;;;;;;;;;4871820;28;20116;-60
2021/10/02 03:39:11;;;;;;;6.47;3.40;;;;;;;;;;4869894;28;20030;-59
2021/10/02 03:41:36;;;;;;;7.10;3.20;;;;;;;;;;4890209;28;20109;-59
2021/10/02 03:44:02;;;;;;;6.30;3.53;;;;;;;;;;4889711;28;20051;-62
2021/10/02 03:46:27;;;;;;;5.30;3.17;;;;;;;;;;4889623;28;20132;-58
2021/10/02 03:48:52;;;;;;;6.15;3.38;;;;;;;;;;4891204;28;20033;-56
2021/10/02 03:51:18;;;;;;;6.30;3.50;;;;;;;;;;4874723;28;20026;-57
2021/10/02 03:53:43;;;;;;;7.60;3.30;;;;;;;;;;4874633;28;20021;-58
2021/10/02 03:56:09;;;;;;;6.35;3.17;;;;;;;;;;4888961;28;20156;-59
2021/10/02 03:58:34;;;;;;;7.60;3.45;;;;;;;;;;4875812;28;20076;-58
2021/10/02 04:01:00;;;;;;;6.45;3.03;;;;;;;;;;4886630;28;20056;-58
2021/10/02 04:03:25;;;;;;;7.10;3.40;;;;;;;;;;4893668;28;20461;-58
2021/10/02 04:05:50;;;;;;;8.40;3.40;;;;;;;;;;4893172;28;20327;-58
2021/10/02 04:08:16;;;;;;;7.40;3.22;;;;;;;;;;4889029;28;20807;-58
2021/10/02 04:10:41;;;;;;;6.53;3.10;;;;;;;;;;4880409;28;21467;-58
2021/10/02 04:13:07;;;;;;;6.03;2.97;;;;;;;;;;4870801;28;21330;-58
2021/10/02 04:15:34;;;;;;;9.80;3.05;;;;;;;;;;4871180;28;20140;-58
2021/10/02 04:17:59;;;;;;;8.55;3.17;;;;;;;;;;4867185;28;20026;-56
2021/10/02 04:20:25;;;;;;;8.82;3.95;;;;;;;;;;4881679;28;24518;-59
2021/10/02 04:22:50;;;;;;;6.75;3.30;;;;;;;;;;4890018;28;20033;-55
2021/10/02 04:25:16;;;;;;;6.33;3.23;;;;;;;;;;4889340;28;24399;-58
2021/10/02 04:27:42;;;;;;;8.60;3.67;;;;;;;;;;4890882;28;20383;-57
2021/10/02 04:30:07;;;;;;;5.68;2.78;;;;;;;;;;4883236;28;20037;-58
2021/10/02 04:32:32;;;;;;;8.10;3.42;;;;;;;;;;4867829;28;20822;-58
2021/10/02 04:34:58;;;;;;;7.60;3.33;;;;;;;;;;4870741;28;20060;-58
2021/10/02 04:37:23;;;;;;;6.63;3.40;;;;;;;;;;4868867;28;20030;-58
2021/10/02 04:39:49;;;;;;;5.40;3.27;;;;;;;;;;4872734;28;20695;-57
2021/10/02 04:42:14;;;;;;;6.60;3.40;;;;;;;;;;4888504;28;21014;-58
2021/10/02 04:44:39;;;;;;;10.15;6.50;;;;;;;;;;4889714;28;21606;-57
2021/10/02 04:47:05;;;;;;;8.80;6.00;;;;;;;;;;4885922;28;20075;-57
2021/10/02 04:49:30;;;;;;;8.75;5.15;;;;;;;;;;4885355;28;20037;-59
2021/10/02 04:51:55;;;;;;;9.57;5.82;;;;;;;;;;4869399;28;20607;-57
2021/10/02 04:54:21;;;;;;;8.10;5.38;;;;;;;;;;4869241;28;20030;-58
2021/10/02 04:56:46;;;;;;;7.60;4.80;;;;;;;;;;4868962;28;20112;-57
2021/10/02 04:59:11;;;;;;;7.55;4.85;;;;;;;;;;4870493;28;20029;-59
2021/10/02 05:01:38;;;;;;;8.10;4.78;;;;;;;;;;4887096;28;21636;-58
2021/10/02 05:04:04;;;;;;;7.97;4.93;;;;;;;;;;4888509;28;20116;-57
2021/10/02 05:06:29;;;;;;;9.10;5.50;;;;;;;;;;4889119;28;20722;-57
2021/10/02 05:08:54;;;;;;;7.63;4.90;;;;;;;;;;4902354;28;20113;-58
2021/10/02 05:11:20;;;;;;;7.40;4.85;;;;;;;;;;4872137;28;20729;-58
2021/10/02 05:13:45;;;;;;;8.10;4.50;;;;;;;;;;4870897;28;20473;-57
2021/10/02 05:16:11;;;;;;;8.93;4.43;;;;;;;;;;4873063;28;20591;-58
2021/10/02 05:18:37;;;;;;;8.10;4.82;;;;;;;;;;4866917;28;20034;-58
2021/10/02 05:21:02;;;;;;;7.32;3.30;;;;;;;;;;4886649;28;20639;-58
2021/10/02 05:23:27;;;;;;;6.72;4.32;;;;;;;;;;4890223;28;20041;-59
2021/10/02 05:25:54;;;;;;;7.88;4.38;;;;;;;;;;4886451;28;20041;-58
2021/10/02 05:28:21;;;;;;;8.13;4.80;;;;;;;;;;4888369;28;20026;-57
2021/10/02 05:30:46;;;;;;;12.00;6.32;;;;;;;;;;4876718;28;20591;-58
2021/10/02 05:33:11;;;;;;;11.50;6.25;;;;;;;;;;4870856;28;20037;-59
2021/10/02 05:35:37;;;;;;;12.45;6.40;;;;;;;;;;4866296;28;20034;-59
2021/10/02 05:38:02;;;;;;;13.23;5.55;;;;;;;;;;4870220;28;21199;-59
2021/10/02 05:40:28;;;;;;;8.93;4.85;;;;;;;;;;4859887;28;20030;-57
2021/10/02 05:42:53;;;;;;;8.10;4.72;;;;;;;;;;4887845;28;21124;-58
2021/10/02 05:45:19;;;;;;;8.35;4.80;;;;;;;;;;4889322;28;20034;-59
2021/10/02 05:47:44;;;;;;;7.95;4.28;;;;;;;;;;4888197;28;20029;-58
2021/10/02 05:50:09;;;;;;;8.63;4.30;;;;;;;;;;4883620;28;20052;-60
2021/10/02 05:52:35;;;;;;;9.10;4.25;;;;;;;;;;4866887;28;20116;-57
2021/10/02 05:55:00;;;;;;;9.88;4.43;;;;;;;;;;4873025;28;20465;-58
2021/10/02 05:57:26;;;;;;;9.38;4.50;;;;;;;;;;4870925;28;20791;-58
2021/10/02 05:59:51;;;;;;;9.43;4.85;;;;;;;;;;4876893;28;20025;-58
2021/10/02 06:02:16;;;;;;;8.85;4.32;;;;;;;;;;4893331;28;20041;-58
2021/10/02 06:04:42;;;;;;;8.85;4.15;;;;;;;;;;4892897;28;21144;-58
2021/10/02 06:07:07;;;;;;;7.00;3.85;;;;;;;;;;4891801;28;20038;-60
2021/10/02 06:09:33;;;;;;;7.68;3.60;;;;;;;;;;4887123;28;20057;-58
2021/10/02 06:11:58;;;;;;;7.60;3.85;;;;;;;;;;4874351;28;20572;-58
2021/10/02 06:14:23;;;;;;;9.43;3.53;;;;;;;;;;4871778;28;20554;-58
2021/10/02 06:16:49;;;;;;;6.45;3.75;;;;;;;;;;4873758;28;20037;-58
2021/10/02 06:19:14;;;;;;;7.85;3.80;;;;;;;;;;4874380;28;20868;-58
2021/10/02 06:21:40;;;;;;;7.90;3.67;;;;;;;;;;4891345;28;20593;-59
2021/10/02 06:24:06;;;;;;;8.57;3.60;;;;;;;;;;4896010;28;20651;-58
2021/10/02 06:26:32;;;;;;;7.25;3.50;;;;;;;;;;4891833;28;20038;-58
2021/10/02 06:28:58;;;;;;;8.35;3.92;;;;;;;;;;4893322;28;20033;-58
2021/10/02 06:31:23;;;;;;;7.68;4.22;;;;;;;;;;4888898;28;20113;-58
2021/10/02 06:33:49;;;;;;;9.45;4.38;;;;;;;;;;4874014;28;21174;-58
2021/10/02 06:36:14;;;;;;;8.30;4.72;;;;;;;;;;4875115;28;20026;-58
2021/10/02 06:38:40;;;;;;;9.13;4.47;;;;;;;;;;4873462;28;20275;-58
2021/10/02 06:41:06;;;;;;;8.60;4.15;;;;;;;;;;4886054;28;20092;-59
2021/10/02 06:43:31;;;;;;;6.75;3.80;;;;;;;;;;4892072;28;20037;-58
2021/10/02 06:45:57;;;;;;;9.07;3.97;;;;;;;;;;4891107;28;20048;-58
2021/10/02 06:48:22;;;;;;;8.00;3.63;;;;;;;;;;4891520;28;20824;-58
2021/10/02 06:50:48;;;;;;;6.82;3.67;;;;;;;;;;4879846;28;20132;-59
2021/10/02 06:53:13;;;;;;;6.50;3.72;;;;;;;;;;4873193;28;20632;-58
2021/10/02 06:55:38;;;;;;;7.77;4.20;;;;;;;;;;4872035;28;20026;-58
2021/10/02 06:58:04;;;;;;;8.55;4.00;;;;;;;;;;4872241;28;20326;-58
2021/10/02 07:00:29;;;;;;;7.15;3.85;;;;;;;;;;4879682;28;20303;-58
2021/10/02 07:02:55;;;;;;;8.35;4.05;;;;;;;;;;4891555;28;20694;-58
2021/10/02 07:05:20;;;;;;;7.22;3.38;;;;;;;;;;4891890;28;20041;-58
2021/10/02 07:07:45;;;;;;;6.50;3.83;;;;;;;;;;4891605;28;20841;-57
2021/10/02 07:10:11;;;;;;;6.30;3.58;;;;;;;;;;4884285;28;20030;-58
2021/10/02 07:12:36;;;;;;;7.05;3.92;;;;;;;;;;4885042;28;20093;-58
2021/10/02 07:15:03;;;;;;;7.90;4.00;;;;;;;;;;4874364;28;20017;-59
2021/10/02 07:17:28;;;;;;;9.25;4.00;;;;;;;;;;4871591;28;20759;-56
2021/10/02 07:19:54;;;;;;;7.60;3.80;;;;;;;;;;4877417;28;20132;-58
2021/10/02 07:22:20;;;;;;;8.40;4.00;;;;;;;;;;4902304;28;23885;-58
2021/10/02 07:24:45;;;;;;;8.15;3.83;;;;;;;;;;4893556;28;20132;-58
2021/10/02 07:27:10;;;;;;;8.20;4.20;;;;;;;;;;4892251;28;20042;-59
2021/10/02 07:29:35;;;;;;;7.60;4.07;;;;;;;;;;4883899;28;21412;-57
2021/10/02 07:32:01;;;;;;;8.73;4.40;;;;;;;;;;4873755;28;21965;-57
2021/10/02 07:34:26;;;;;;;8.45;4.95;;;;;;;;;;4871678;28;21060;-57
2021/10/02 07:36:52;;;;;;;7.60;3.90;;;;;;;;;;4872052;28;20055;-57
2021/10/02 07:39:17;;;;;;;6.93;4.13;;;;;;;;;;4868507;28;20648;-57
2021/10/02 07:41:44;;;;;;;7.50;3.97;;;;;;;;;;4903059;28;20034;-59
2021/10/02 07:44:11;;;;;;;6.43;3.90;;;;;;;;;;4880359;28;20026;-59
2021/10/02 07:46:36;;;;;;;6.70;4.15;;;;;;;;;;4882950;28;20167;-57
2021/10/02 07:49:02;;;;;;;8.80;3.83;;;;;;;;;;4881877;28;21035;-59
2021/10/02 07:51:27;;;;;;;7.93;4.20;;;;;;;;;;4865618;28;20790;-60
2021/10/02 07:53:53;;;;;;;6.75;3.67;;;;;;;;;;4879594;28;20688;-57
2021/10/02 07:56:19;;;;;;;6.95;3.97;;;;;;;;;;4861518;28;20037;-57
2021/10/02 07:58:46;;;;;;;8.77;3.92;;;;;;;;;;4859575;28;20033;-60
2021/10/02 08:01:11;;;;;;;7.32;3.90;;;;;;;;;;4888471;28;20041;-57
2021/10/02 08:03:37;;;;;;;7.60;4.38;;;;;;;;;;4879160;28;20108;-57
2021/10/02 08:06:02;;;;;;;6.70;3.80;;;;;;;;;;4879443;28;20107;-59
2021/10/02 08:08:28;;;;;;;7.25;4.07;;;;;;;;;;4880840;28;20410;-59
2021/10/02 08:10:53;;;;;;;6.80;3.90;;;;;;;;;;4875751;28;21597;-57
2021/10/02 08:13:19;;;;;;;7.60;4.10;;;;;;;;;;4867510;28;20563;-58
2021/10/02 08:15:45;;;;;;;7.28;3.47;;;;;;;;;;4870338;28;20728;-58
2021/10/02 08:18:12;;;;;;;8.13;4.07;;;;;;;;;;4868706;28;20030;-57
2021/10/02 08:20:38;;;;;;;7.32;4.13;;;;;;;;;;4879714;28;20073;-57
2021/10/02 08:23:03;;;;;;;7.15;3.92;;;;;;;;;;4888265;28;20022;-57
2021/10/02 08:25:30;;;;;;;7.45;3.63;;;;;;;;;;4890710;28;20109;-57
2021/10/02 08:27:57;;;;;;;7.43;4.05;;;;;;;;;;4880315;28;20920;-58
2021/10/02 08:30:23;;;;;;;8.38;3.92;;;;;;;;;;4880777;28;20021;-58
2021/10/02 08:32:48;;;;;;;6.82;4.10;;;;;;;;;;4871569;28;20080;-58
2021/10/02 08:35:13;;;;;;;9.52;4.07;;;;;;;;;;4870773;28;20036;-60
2021/10/02 08:37:39;;;;;;;7.55;3.80;;;;;;;;;;4872491;28;20035;-58
2021/10/02 08:40:06;;;;;;;7.20;4.15;;;;;;;;;;4876407;28;20099;-57
2021/10/02 08:42:31;;;;;;;7.88;4.30;;;;;;;;;;4888096;28;20029;-57
2021/10/02 08:44:58;;;;;;;7.55;3.97;;;;;;;;;;4889803;28;20751;-58
2021/10/02 08:47:23;;;;;;;7.63;4.30;;;;;;;;;;4888158;28;20499;-57
2021/10/02 08:49:50;;;;;;;8.60;4.38;;;;;;;;;;4887417;28;20026;-58
2021/10/02 08:52:16;;;;;;;9.60;4.28;;;;;;;;;;4868019;28;20137;-58
2021/10/02 08:54:44;;;;;;;7.97;4.07;;;;;;;;;;4862036;28;20777;-57
2021/10/02 08:57:11;;;;;;;7.47;4.35;;;;;;;;;;4865190;28;20040;-57
2021/10/02 08:59:37;;;;;;;9.75;4.47;;;;;;;;;;4867473;28;20660;-58
2021/10/02 09:02:05;;;;;;;7.07;4.50;;;;;;;;;;4886433;28;20620;-58
2021/10/02 09:04:30;;;;;;;8.32;4.07;;;;;;;;;;4884111;28;20030;-57
2021/10/02 09:06:55;;;;;;;9.10;4.70;;;;;;;;;;4888135;28;20491;-58
2021/10/02 09:09:21;;;;;;;11.27;5.30;;;;;;;;;;4887467;28;20972;-58
2021/10/02 09:11:46;;;;;;;10.48;5.30;;;;;;;;;;4867594;28;20023;-57
2021/10/02 09:14:11;;;;;;;9.43;5.38;;;;;;;;;;4858078;28;20622;-57
2021/10/02 09:16:42;;;;;;;9.43;5.50;;;;;;;;;;4858877;28;20113;-58
2021/10/02 09:19:09;;;;;;;8.45;5.50;;;;;;;;;;4857739;28;20697;-56
2021/10/02 09:21:41;;;;;;;10.40;5.32;;;;;;;;;;4877443;28;20026;-58
2021/10/02 09:24:18;;;;;;;10.20;6.32;;;;;;;;;;4879670;28;20125;-57
2021/10/02 09:26:47;;;;;;;12.05;6.10;;;;;;;;;;4888949;28;20105;-56
2021/10/02 09:29:13;;;;;;;11.57;5.90;;;;;;;;;;4886575;28;20030;-56
2021/10/02 09:31:39;;;;;;;7.88;4.72;;;;;;;;;;4878068;28;20048;-56
2021/10/02 09:34:04;;;;;;;10.63;4.70;;;;;;;;;;4867803;28;20587;-58
2021/10/02 09:36:30;;;;;;;8.25;4.15;;;;;;;;;;4865221;28;20084;-58
2021/10/02 09:38:55;;;;;;;7.78;4.50;;;;;;;;;;4862281;28;20022;-57
2021/10/02 09:41:21;;;;;;;7.88;4.85;;;;;;;;;;4883763;28;20150;-57
2021/10/02 09:43:48;;;;;;;8.68;4.60;;;;;;;;;;4886542;28;20081;-58
2021/10/02 09:46:13;;;;;;;7.55;4.78;;;;;;;;;;4883935;28;20161;-57
2021/10/02 09:48:39;;;;;;;9.05;5.00;;;;;;;;;;4876838;28;20145;-57
2021/10/02 09:51:05;;;;;;;9.52;5.22;;;;;;;;;;4867382;28;23897;-58
2021/10/02 09:53:36;;;;;;;8.82;5.18;;;;;;;;;;4863666;28;20029;-58
2021/10/02 09:56:05;;;;;;;9.45;5.47;;;;;;;;;;4862310;28;20540;-58
2021/10/02 09:58:34;;;;;;;11.07;6.07;;;;;;;;;;4868061;28;20729;-57
2021/10/02 10:01:01;;;;;;;10.63;6.85;;;;;;;;;;4879311;28;20037;-58
2021/10/02 10:03:39;;;;;;;11.20;6.55;;;;;;;;;;4882174;28;20057;-57
2021/10/02 10:06:14;;;;;;;13.15;7.22;;;;;;;;;;4880864;28;20480;-57
2021/10/02 10:08:40;;;;;;;11.23;6.40;;;;;;;;;;4887603;28;20072;-58
2021/10/02 10:11:06;;;;;;;10.10;5.70;;;;;;;;;;4874022;28;20026;-58
2021/10/02 10:13:32;;;;;;;8.98;5.85;;;;;;;;;;4865049;28;20030;-58
2021/10/02 10:15:57;;;;;;;9.90;5.90;;;;;;;;;;4866939;28;20806;-57
2021/10/02 10:18:30;;;;;;;8.82;4.90;;;;;;;;;;4869727;28;20164;-59
2021/10/02 10:21:03;;;;;;;7.82;5.22;;;;;;;;;;4880968;28;20064;-57
2021/10/02 10:23:30;;;;;;;8.80;5.40;;;;;;;;;;4890399;28;20044;-57
2021/10/02 10:26:01;;;;;;;8.48;5.00;;;;;;;;;;4889764;28;20038;-58
2021/10/02 10:28:28;;;;;;;10.20;5.57;;;;;;;;;;4890005;28;20583;-58
2021/10/02 10:30:54;;;;;;;11.13;5.82;;;;;;;;;;4873953;28;20045;-57
2021/10/02 10:33:20;;;;;;;13.60;7.10;;;;;;;;;;4869163;28;20030;-59
2021/10/02 10:35:47;;;;;;;9.25;6.20;;;;;;;;;;4865713;28;20693;-57
2021/10/02 10:38:14;;;;;;;9.82;5.90;;;;;;;;;;4867430;28;20030;-56
2021/10/02 10:40:40;;;;;;;9.27;5.45;;;;;;;;;;4889260;28;20915;-57
2021/10/02 10:43:05;;;;;;;10.38;6.40;;;;;;;;;;4883101;28;20042;-57
2021/10/02 10:45:31;;;;;;;9.35;6.38;;;;;;;;;;4886110;28;20046;-57
2021/10/02 10:47:57;;;;;;;10.25;5.60;;;;;;;;;;4884461;28;20727;-55
2021/10/02 10:50:25;;;;;;;12.93;7.60;;;;;;;;;;4871764;28;21190;-57
2021/10/02 10:52:51;;;;;;;9.35;6.65;;;;;;;;;;4863916;28;20030;-56
2021/10/02 10:55:21;;;;;;;10.68;6.47;;;;;;;;;;4866943;28;20212;-59
2021/10/02 10:57:48;;;;;;;9.88;6.38;;;;;;;;;;4866153;28;20037;-58
2021/10/02 11:00:16;;;;;;;11.25;7.38;;;;;;;;;;4872848;28;20566;-57
2021/10/02 11:02:55;;;;;;;12.32;8.60;;;;;;;;;;4878234;28;20480;-57
2021/10/02 11:05:35;;;;;;;11.57;7.77;;;;;;;;;;4880655;28;20119;-57
2021/10/02 11:08:01;;;;;;;12.52;8.07;;;;;;;;;;4880048;28;20113;-58
2021/10/02 11:10:42;;;;;;;11.13;6.97;;;;;;;;;;4891861;28;20396;-57
2021/10/02 11:13:12;;;;;;;11.13;7.00;;;;;;;;;;4864839;28;20038;-58
2021/10/02 11:15:38;;;;;;;11.27;6.95;;;;;;;;;;4864006;28;20692;-56
2021/10/02 11:18:04;;;;;;;10.82;7.20;;;;;;;;;;4862788;28;20397;-58
2021/10/02 11:20:39;;;;;;;10.25;6.88;;;;;;;;;;4873575;28;20030;-59
2021/10/02 11:23:23;;;;;;;14.57;7.28;;;;;;;;;;4885656;28;20572;-59
2021/10/02 11:26:08;;;;;;;10.27;7.50;;;;;;;;;;4885705;28;20137;-57
2021/10/02 11:28:33;;;;;;;10.20;6.90;;;;;;;;;;4883985;28;20061;-58
2021/10/02 11:30:59;;;;;;;9.93;6.85;;;;;;;;;;4868442;28;20676;-58
2021/10/02 11:33:27;;;;;;;9.65;6.57;;;;;;;;;;4869043;28;20464;-57
2021/10/02 11:35:52;;;;;;;13.02;7.95;;;;;;;;;;4867350;28;20812;-58
2021/10/02 11:38:32;;;;;;;13.07;8.02;;;;;;;;;;4870464;28;20096;-58
2021/10/02 11:40:58;;;;;;;11.15;7.20;;;;;;;;;;4868461;28;24644;-58
2021/10/02 11:43:24;;;;;;;12.77;8.60;;;;;;;;;;4867953;28;20132;-60
2021/10/02 11:45:49;;;;;;;12.13;8.20;;;;;;;;;;4860966;28;20104;-58
2021/10/02 11:48:18;;;;;;;10.77;7.47;;;;;;;;;;4859252;28;20692;-58
2021/10/02 11:50:48;;;;;;;10.50;7.18;;;;;;;;;;4864707;28;20887;-58
2021/10/02 11:53:13;;;;;;;12.75;7.57;;;;;;;;;;4868374;28;20040;-57
2021/10/02 11:55:41;;;;;;;14.23;7.63;;;;;;;;;;4870254;28;20029;-58
2021/10/02 11:58:09;;;;;;;11.93;8.98;;;;;;;;;;4854864;28;20029;-57
2021/10/02 12:00:35;;;;;;;12.10;6.63;;;;;;;;;;4857771;28;20022;-59
2021/10/02 12:03:01;;;;;;;10.27;7.10;;;;;;;;;;4856970;28;20034;-57
2021/10/02 12:05:27;;;;;;;14.63;7.72;;;;;;;;;;4862714;28;20048;-60
2021/10/02 12:07:53;;;;;;;11.55;6.80;;;;;;;;;;4862261;28;20033;-61
2021/10/02 12:10:18;;;;;;;12.02;6.85;;;;;;;;;;4867813;28;20301;-58
2021/10/02 12:12:43;;;;;;;14.33;7.10;;;;;;;;;;4869250;28;20033;-58
2021/10/02 12:15:09;;;;;;;10.45;6.93;;;;;;;;;;4872674;28;20368;-58
2021/10/02 12:17:34;;;;;;;10.88;7.22;;;;;;;;;;4863351;28;20026;-58
2021/10/02 12:20:00;;;;;;;9.45;5.95;;;;;;;;;;4871355;28;20033;-58
2021/10/02 12:22:29;;;;;;;9.27;6.53;;;;;;;;;;4859023;28;20040;-58
2021/10/02 12:24:54;;;;;;;11.33;7.67;;;;;;;;;;4861727;28;20037;-57
2021/10/02 12:27:20;;;;;;;10.00;6.05;;;;;;;;;;4871567;28;20038;-57
2021/10/02 12:29:49;;;;;;;10.90;6.97;;;;;;;;;;4859996;28;20346;-57
2021/10/02 12:32:18;;;;;;;14.38;7.90;;;;;;;;;;4846122;28;20080;-59
2021/10/02 12:34:45;;;;;;;13.02;7.28;;;;;;;;;;4855567;28;20032;-59
2021/10/02 12:37:12;;;;;;;14.40;8.05;;;;;;;;;;4846581;28;20033;-58
2021/10/02 12:39:38;;;;;;;15.45;7.68;;;;;;;;;;4858953;28;20034;-58
2021/10/02 12:42:03;;;;;;;11.50;8.43;;;;;;;;;;4861550;28;24464;-59
2021/10/02 12:44:30;;;;;;;19.10;8.18;;;;;;;;;;4865027;28;20131;-58
2021/10/02 12:46:57;;;;;;;11.27;7.70;;;;;;;;;;4870169;28;20034;-58
2021/10/02 12:49:23;;;;;;;13.25;7.60;;;;;;;;;;4865142;28;20222;-58
2021/10/02 12:51:49;;;;;;;12.13;7.40;;;;;;;;;;4861720;28;20450;-59
2021/10/02 12:54:15;;;;;;;12.98;7.35;;;;;;;;;;4856897;28;20033;-57
2021/10/02 12:57:13;;;;;;;13.88;7.40;;;;;;;;;;4857772;28;20029;-59
2021/10/02 12:59:50;;;;;;;11.93;6.95;;;;;;;;;;4825678;28;20049;-58
2021/10/02 13:02:16;;;;;;;12.05;7.45;;;;;;;;;;4860078;28;20038;-60
2021/10/02 13:04:42;;;;;;;12.80;7.13;;;;;;;;;;4880718;28;20815;-58
2021/10/02 13:07:07;;;;;;;9.85;6.55;;;;;;;;;;4876484;28;20671;-59
2021/10/02 13:09:52;;;;;;;12.75;6.90;;;;;;;;;;4878762;28;20715;-58
2021/10/02 13:12:23;;;;;;;11.13;6.18;;;;;;;;;;4863916;28;21620;-58
2021/10/02 13:14:49;;;;;;;12.35;7.22;;;;;;;;;;4859050;28;20032;-58
2021/10/02 13:17:14;;;;;;;13.13;7.70;;;;;;;;;;4859093;28;20038;-59
2021/10/02 13:19:40;;;;;;;11.10;6.80;;;;;;;;;;4865942;28;20160;-58
2021/10/02 13:22:31;;;;;;;13.40;7.70;;;;;;;;;;4859971;28;20029;-57
2021/10/02 13:25:23;;;;;;;11.43;7.20;;;;;;;;;;4863118;28;20570;-58
2021/10/02 13:27:55;;;;;;;12.23;7.53;;;;;;;;;;4862286;28;21269;-58
2021/10/02 13:30:22;;;;;;;10.35;6.97;;;;;;;;;;4864429;28;20467;-58
2021/10/02 13:33:01;;;;;;;10.60;6.70;;;;;;;;;;4867993;28;20137;-59
2021/10/02 13:35:28;;;;;;;12.18;7.82;;;;;;;;;;4867460;28;20503;-58
2021/10/02 13:37:54;;;;;;;13.13;7.72;;;;;;;;;;4863581;28;20038;-60
2021/10/02 13:40:20;;;;;;;14.18;7.43;;;;;;;;;;4862713;28;20144;-59
2021/10/02 13:42:46;;;;;;;12.98;7.82;;;;;;;;;;4862079;28;20026;-59
2021/10/02 13:45:11;;;;;;;10.45;7.32;;;;;;;;;;4857971;28;20311;-57
2021/10/02 13:47:37;;;;;;;14.80;8.40;;;;;;;;;;4862825;28;20349;-56
2021/10/02 13:50:02;;;;;;;12.85;8.15;;;;;;;;;;4857040;28;20025;-58
2021/10/02 13:52:28;;;;;;;12.73;8.13;;;;;;;;;;4859540;28;21100;-58
2021/10/02 13:54:53;;;;;;;14.35;8.23;;;;;;;;;;4861246;28;20033;-58
2021/10/02 13:57:18;;;;;;;12.30;7.50;;;;;;;;;;4858125;28;20038;-58
2021/10/02 13:59:44;;;;;;;12.32;7.85;;;;;;;;;;4865161;28;20559;-58
2021/10/02 14:02:09;;;;;;;12.60;8.45;;;;;;;;;;4861485;28;20026;-57
2021/10/02 14:04:35;;;;;;;12.57;7.97;;;;;;;;;;4859664;28;20022;-57
2021/10/02 14:07:04;;;;;;;11.73;8.90;;;;;;;;;;4862225;28;20033;-59
2021/10/02 14:09:29;;;;;;;16.13;9.67;;;;;;;;;;4859970;28;20104;-58
2021/10/02 14:11:54;;;;;;;16.88;9.00;;;;;;;;;;4861791;28;20423;-56
2021/10/02 14:14:20;;;;;;;14.20;8.52;;;;;;;;;;4861540;28;20135;-59
2021/10/02 14:16:45;;;;;;;10.57;7.50;;;;;;;;;;4862092;28;21367;-60
2021/10/02 14:19:11;;;;;;;9.80;6.93;;;;;;;;;;4865795;28;20108;-58
2021/10/02 14:21:36;;;;;;;11.30;6.55;;;;;;;;;;4875355;28;20068;-58
2021/10/02 14:24:01;;;;;;;14.55;7.63;;;;;;;;;;4865657;28;20632;-57
2021/10/02 14:26:27;;;;;;;10.27;7.47;;;;;;;;;;4863645;28;20041;-58
2021/10/02 14:28:52;;;;;;;10.45;7.05;;;;;;;;;;4862284;28;20061;-59
2021/10/02 14:31:17;;;;;;;10.85;7.20;;;;;;;;;;4863977;28;20033;-58
2021/10/02 14:33:46;;;;;;;11.73;7.53;;;;;;;;;;4864742;28;20667;-58
2021/10/02 14:36:12;;;;;;;13.55;7.00;;;;;;;;;;4864459;28;20089;-58
2021/10/02 14:38:38;;;;;;;12.43;6.67;;;;;;;;;;4868818;28;20030;-59
2021/10/02 14:41:04;;;;;;;10.35;6.85;;;;;;;;;;4864588;28;20347;-59
2021/10/02 14:43:29;;;;;;;10.40;7.40;;;;;;;;;;4877133;28;20037;-58
2021/10/02 14:45:55;;;;;;;10.65;6.55;;;;;;;;;;4860023;28;20036;-58
2021/10/02 14:48:21;;;;;;;11.95;6.95;;;;;;;;;;4867323;28;24544;-59
2021/10/02 14:50:46;;;;;;;9.95;6.55;;;;;;;;;;4864085;28;20841;-58
2021/10/02 14:53:14;;;;;;;10.98;6.40;;;;;;;;;;4885349;28;20030;-58
2021/10/02 14:55:39;;;;;;;12.20;7.18;;;;;;;;;;4865345;28;20034;-58
2021/10/02 14:58:05;;;;;;;9.30;6.07;;;;;;;;;;4867976;28;20037;-58
2021/10/02 15:00:30;;;;;;;11.88;7.43;;;;;;;;;;4865469;28;20037;-58
2021/10/02 15:02:56;;;;;;;13.38;7.45;;;;;;;;;;4866919;28;20026;-58
2021/10/02 15:05:21;;;;;;;11.60;6.22;;;;;;;;;;4868725;28;20030;-58
2021/10/02 15:07:47;;;;;;;13.03;6.80;;;;;;;;;;4871695;28;21243;-58
2021/10/02 15:10:12;;;;;;;11.75;6.63;;;;;;;;;;4864758;28;20034;-59
2021/10/02 15:12:38;;;;;;;14.25;7.28;;;;;;;;;;4869629;28;20863;-58
2021/10/02 15:15:04;;;;;;;10.10;6.90;;;;;;;;;;4864575;28;20388;-58
2021/10/02 15:17:31;;;;;;;12.85;7.00;;;;;;;;;;4860105;28;20034;-58
2021/10/02 15:19:56;;;;;;;12.38;6.97;;;;;;;;;;4873965;28;20021;-58
2021/10/02 15:22:23;;;;;;;9.25;6.57;;;;;;;;;;4884003;28;20493;-59
2021/10/02 15:24:56;;;;;;;15.13;7.07;;;;;;;;;;4879376;28;20521;-59
2021/10/02 15:27:27;;;;;;;11.00;7.18;;;;;;;;;;4875784;28;20065;-58
2021/10/02 15:29:53;;;;;;;11.85;6.82;;;;;;;;;;4871157;28;24247;-58
2021/10/02 15:32:18;;;;;;;9.73;5.78;;;;;;;;;;4868298;28;20780;-59